Decoded Metar for LPAZ (SANTA MARIA (ISLAND) in PORTUGAL) (IATA:SMA) | Meteo·Mobile Aviation Weather
aviador You're here:

LPAZ Decoded Metar

SANTA MARIA (ISLAND) in PORTUGAL
Report Time2019-10-19 22:30:00
UTC Time2019-10-19 22:59:29
Flight Rules vfr VFR
Wind040° at 09 kt
W.Decomp.*RWY 36: 5.8 kt HW 6.9 kt RCW
Visibility9999 m
Phenomena:N/A
Clouds:Few 020 Hf
Scattered 050 Hf
Expected CloudBase > 1,600 ft AGL from Temp-Dew spread
CeilingNone
Temp17°C (ISA +3)
Dew Point13°C (77% RH)
AAT14.7°C
QNH1025 hPa
Density Alt436 ft
Elevation328 ft
Report Wrong Elevation
Raw Report
METAR LPAZ 192230Z 04009KT 9999 FEW020 SCT050 17/13 Q1025=

Extra information for LPAZ:More info

Metar Taf Metar & Taf Last 4 Metars F.Rules Stats Wind Profile Meteogram Temp Stats Airport Information Weather charts Add Link Nearby VenuesMetar ALERT Operation Metar Decoded Social comments